createdAt,value
2019-05-02T00:01:01.664Z,75.46
2019-05-02T00:03:35.869Z,75.82
2019-05-02T00:06:03.037Z,75.89
2019-05-02T00:08:34.349Z,76.69
2019-05-02T00:11:03.392Z,75.83
2019-05-02T00:13:32.638Z,75.86
2019-05-02T00:16:01.396Z,76.17
2019-05-02T00:18:31.915Z,76.30
2019-05-02T00:21:01.447Z,76.21
2019-05-02T00:23:31.790Z,76.65
2019-05-02T00:26:00.474Z,76.88
2019-05-02T00:28:29.247Z,77.20
2019-05-02T00:30:57.992Z,77.27
2019-05-02T00:33:29.306Z,77.19
2019-05-02T00:35:57.744Z,77.28
2019-05-02T00:38:26.689Z,76.69
2019-05-02T00:40:57.402Z,76.43
2019-05-02T00:43:29.102Z,76.52
2019-05-02T00:45:59.775Z,76.95
2019-05-02T00:48:54.155Z,77.53
2019-05-02T00:51:21.937Z,77.77
2019-05-02T00:53:51.732Z,78.11
2019-05-02T00:56:21.054Z,78.37
2019-05-02T00:58:49.758Z,78.09
2019-05-02T01:01:32.693Z,78.38
2019-05-02T01:04:05.731Z,78.96
2019-05-02T01:06:34.689Z,79.25
2019-05-02T01:09:05.845Z,79.66
2019-05-02T01:11:35.921Z,79.07
2019-05-02T01:14:05.080Z,79.30
2019-05-02T01:16:33.828Z,79.62
2019-05-02T01:19:03.188Z,79.26
2019-05-02T01:21:38.405Z,79.42
2019-05-02T01:24:03.301Z,79.92
2019-05-02T01:26:36.766Z,80.01
2019-05-02T01:29:11.214Z,79.78
2019-05-02T01:32:05.249Z,79.60
2019-05-02T01:34:48.943Z,79.33
2019-05-02T01:37:22.015Z,79.63
2019-05-02T01:39:50.692Z,80.08
2019-05-02T01:42:19.353Z,80.35
2019-05-02T01:44:48.352Z,80.47
2019-05-02T01:47:17.400Z,80.40
2019-05-02T01:49:46.091Z,80.39
2019-05-02T01:52:18.991Z,80.06
2019-05-02T01:54:45.682Z,79.73
2019-05-02T01:57:15.930Z,80.15
2019-05-02T01:59:44.616Z,79.96
2019-05-02T02:02:13.667Z,80.45
2019-05-02T02:04:45.072Z,80.56
2019-05-02T02:07:15.004Z,80.78
2019-05-02T02:09:45.839Z,80.57
2019-05-02T02:12:14.611Z,80.79
2019-05-02T02:14:43.316Z,81.19
2019-05-02T02:17:15.584Z,81.93
2019-05-02T02:19:48.344Z,81.29
2019-05-02T02:22:33.752Z,80.95
2019-05-02T02:25:21.175Z,81.81
2019-05-02T02:27:49.844Z,81.79
2019-05-02T02:30:24.335Z,82.02
2019-05-02T02:32:49.055Z,82.05
2019-05-02T02:35:17.741Z,82.34
2019-05-02T02:37:52.922Z,82.60
2019-05-02T02:40:16.993Z,82.22
2019-05-02T02:42:45.836Z,82.75
2019-05-02T02:45:31.456Z,82.60
2019-05-02T02:48:02.453Z,83.03
2019-05-02T02:50:30.554Z,82.28
2019-05-02T02:52:59.497Z,82.97
2019-05-02T02:55:28.284Z,82.99
2019-05-02T02:57:58.565Z,82.93
2019-05-02T03:00:27.473Z,82.82
2019-05-02T03:02:56.391Z,82.27
2019-05-02T03:05:27.673Z,82.71
2019-05-02T03:07:59.509Z,82.28
2019-05-02T03:10:26.908Z,82.71
2019-05-02T03:13:21.479Z,82.37
2019-05-02T03:15:50.454Z,82.04
2019-05-02T03:18:19.204Z,82.07
2019-05-02T03:20:48.299Z,82.50
2019-05-02T03:23:21.695Z,82.04
2019-05-02T03:25:51.217Z,82.18
2019-05-02T03:28:20.853Z,82.31
2019-05-02T03:30:49.307Z,81.86
2019-05-02T03:33:18.100Z,82.34
2019-05-02T03:35:49.070Z,81.98
2019-05-02T03:38:17.898Z,82.29
2019-05-02T03:40:46.586Z,82.60
2019-05-02T03:43:18.987Z,82.70
2019-05-02T03:45:45.910Z,82.48
2019-05-02T03:48:18.135Z,82.75
2019-05-02T03:50:45.383Z,83.34
2019-05-02T03:53:17.526Z,83.75
2019-05-02T03:55:44.666Z,84.22
2019-05-02T03:58:16.775Z,84.19
2019-05-02T04:00:47.121Z,84.03
2019-05-02T04:03:16.469Z,84.14
2019-05-02T04:05:45.238Z,83.95
2019-05-02T04:08:20.844Z,83.40
2019-05-02T04:11:09.207Z,82.81
2019-05-02T04:13:38.657Z,83.69
2019-05-02T04:16:14.525Z,83.53
2019-05-02T04:18:38.310Z,83.29
2019-05-02T04:21:07.031Z,83.66
2019-05-02T04:23:38.347Z,83.77
2019-05-02T04:26:12.769Z,83.44
2019-05-02T04:28:37.843Z,83.72
2019-05-02T04:31:06.570Z,83.98
2019-05-02T04:33:36.572Z,83.55
2019-05-02T04:36:13.752Z,83.79
2019-05-02T04:38:46.567Z,83.70
2019-05-02T04:41:09.337Z,83.33
2019-05-02T04:43:40.576Z,83.56
2019-05-02T04:46:18.091Z,83.10
2019-05-02T04:48:48.150Z,83.15
2019-05-02T04:51:16.262Z,83.39
2019-05-02T04:53:45.039Z,83.29
2019-05-02T04:56:11.733Z,82.79
2019-05-02T04:58:40.946Z,83.04
2019-05-02T05:01:10.296Z,82.83
2019-05-02T05:03:39.198Z,83.00
2019-05-02T05:06:12.232Z,82.89
2019-05-02T05:08:41.588Z,82.34
2019-05-02T05:11:09.069Z,82.76
2019-05-02T05:13:37.738Z,83.16
2019-05-02T05:16:08.645Z,82.54
2019-05-02T05:18:37.863Z,82.73
2019-05-02T05:21:10.342Z,82.53
2019-05-02T05:24:08.312Z,82.69
2019-05-02T05:26:42.831Z,83.04
2019-05-02T05:29:09.322Z,83.20
2019-05-02T05:31:38.284Z,83.33
2019-05-02T05:34:08.017Z,83.61
2019-05-02T05:36:37.618Z,83.77
2019-05-02T05:39:28.175Z,83.25
2019-05-02T05:41:57.854Z,83.42
2019-05-02T05:44:28.682Z,83.39
2019-05-02T05:46:58.142Z,83.21
2019-05-02T05:49:28.222Z,83.06
2019-05-02T05:52:02.277Z,83.18
2019-05-02T05:54:28.293Z,83.19
2019-05-02T05:56:57.615Z,83.42
2019-05-02T05:59:28.117Z,83.84
2019-05-02T06:01:57.995Z,84.03
2019-05-02T06:04:32.709Z,84.35
2019-05-02T06:06:59.408Z,83.82
2019-05-02T06:09:31.009Z,84.30
2019-05-02T06:11:58.457Z,84.04
2019-05-02T06:14:27.163Z,84.27
2019-05-02T06:16:56.059Z,84.11
2019-05-02T06:19:25.100Z,84.20
2019-05-02T06:21:53.777Z,84.30
2019-05-02T06:24:22.537Z,83.87
2019-05-02T06:26:51.854Z,84.61
2019-05-02T06:29:20.976Z,84.50
2019-05-02T06:31:49.898Z,84.47
2019-05-02T06:34:18.612Z,84.66
2019-05-02T06:36:47.355Z,84.53
2019-05-02T06:39:18.904Z,84.71
2019-05-02T06:41:51.896Z,84.98
2019-05-02T06:44:23.640Z,84.65
2019-05-02T06:46:49.966Z,84.36
2019-05-02T06:49:24.294Z,83.99
2019-05-02T06:51:51.065Z,83.85
2019-05-02T06:54:22.907Z,84.37
2019-05-02T06:56:50.226Z,84.20
2019-05-02T06:59:20.259Z,84.44
2019-05-02T07:01:52.395Z,83.99
2019-05-02T07:04:22.959Z,84.04
2019-05-02T07:06:58.494Z,84.10
2019-05-02T07:09:22.014Z,84.22
2019-05-02T07:11:57.267Z,84.31
2019-05-02T07:14:23.538Z,84.53
2019-05-02T07:17:16.392Z,84.18
2019-05-02T07:19:49.858Z,84.58
2019-05-02T07:22:18.587Z,84.37
2019-05-02T07:24:47.287Z,84.55
2019-05-02T07:27:16.572Z,84.33
2019-05-02T07:29:45.300Z,84.60
2019-05-02T07:32:14.165Z,84.80
2019-05-02T07:34:44.261Z,84.58
2019-05-02T07:37:14.051Z,83.80
2019-05-02T07:39:43.416Z,84.15
2019-05-02T07:42:12.444Z,83.87
2019-05-02T07:44:41.325Z,84.22
2019-05-02T07:47:10.005Z,83.56
2019-05-02T07:49:39.078Z,83.56
2019-05-02T07:52:08.065Z,83.37
2019-05-02T07:54:37.006Z,83.45
2019-05-02T07:57:05.788Z,83.70
2019-05-02T07:59:34.787Z,83.98
2019-05-02T08:02:03.455Z,83.67
2019-05-02T08:04:32.141Z,84.03
2019-05-02T08:07:00.807Z,83.47
2019-05-02T08:09:32.225Z,83.53
2019-05-02T08:12:00.887Z,83.46
2019-05-02T08:14:34.514Z,83.31
2019-05-02T08:17:05.669Z,83.81
2019-05-02T08:19:30.935Z,83.17
2019-05-02T08:22:04.722Z,83.12
2019-05-02T08:24:32.976Z,82.97
2019-05-02T08:30:28.395Z,83.10
2019-05-02T08:32:57.396Z,82.99
2019-05-02T08:35:28.033Z,82.87
2019-05-02T08:37:56.607Z,83.12
2019-05-02T08:40:25.346Z,83.35
2019-05-02T08:42:54.026Z,82.83
2019-05-02T08:45:22.787Z,83.04
2019-05-02T08:47:51.759Z,82.70
2019-05-02T08:50:20.520Z,82.87
2019-05-02T08:52:49.537Z,82.43
2019-05-02T08:55:18.225Z,82.65
2019-05-02T08:57:46.900Z,82.59
2019-05-02T09:00:16.042Z,82.39
2019-05-02T09:02:44.798Z,82.39
2019-05-02T09:05:13.834Z,82.29
2019-05-02T09:07:43.301Z,82.53
2019-05-02T09:10:12.386Z,81.75
2019-05-02T09:12:45.074Z,82.25
2019-05-02T09:15:12.621Z,81.51
2019-05-02T09:17:46.564Z,81.61
2019-05-02T09:20:16.598Z,81.51
2019-05-02T09:22:46.493Z,81.71
2019-05-02T09:25:33.994Z,81.79
2019-05-02T09:28:02.674Z,80.91
2019-05-02T09:30:32.682Z,80.67
2019-05-02T09:33:05.399Z,80.53
2019-05-02T09:35:32.904Z,80.59
2019-05-02T09:38:01.923Z,80.12
2019-05-02T09:40:31.866Z,79.97
2019-05-02T09:43:02.835Z,80.14
2019-05-02T09:45:37.168Z,80.14
2019-05-02T09:48:07.086Z,79.56
2019-05-02T09:50:34.785Z,79.91
2019-05-02T09:53:03.765Z,79.44
2019-05-02T09:55:32.532Z,80.25
2019-05-02T09:58:02.659Z,79.65
2019-05-02T10:00:41.844Z,78.50
2019-05-02T10:03:12.050Z,78.34
2019-05-02T10:05:43.000Z,77.98
2019-05-02T10:08:13.934Z,78.19
2019-05-02T10:10:45.724Z,78.53
2019-05-02T10:13:13.159Z,78.58
2019-05-02T10:15:42.269Z,77.93
2019-05-02T10:18:14.123Z,78.42
2019-05-02T10:20:42.133Z,78.48
2019-05-02T10:23:19.048Z,78.09
2019-05-02T10:25:46.614Z,78.51
2019-05-02T10:28:13.095Z,77.45
2019-05-02T10:30:42.665Z,77.56
2019-05-02T10:33:12.497Z,77.48
2019-05-02T10:35:43.499Z,76.87
2019-05-02T10:38:15.147Z,76.63
2019-05-02T10:40:42.946Z,76.02
2019-05-02T10:43:11.890Z,75.85
2019-05-02T10:45:42.642Z,75.17
2019-05-02T10:48:25.237Z,75.31
2019-05-02T10:50:47.524Z,74.69
2019-05-02T10:53:16.358Z,74.79
2019-05-02T10:55:45.481Z,75.14
2019-05-02T10:58:14.256Z,73.13
2019-05-02T11:00:45.399Z,74.42
2019-05-02T11:03:22.556Z,73.37
2019-05-02T11:05:58.016Z,72.15
2019-05-02T11:08:27.534Z,72.23
2019-05-02T11:10:56.412Z,70.33
2019-05-02T11:13:43.320Z,70.90
2019-05-02T11:16:37.316Z,70.83
2019-05-02T11:21:59.278Z,70.34
2019-05-02T11:24:28.647Z,69.20
2019-05-02T11:26:57.676Z,69.57
2019-05-02T11:29:26.738Z,68.76
2019-05-02T11:31:55.725Z,71.04
2019-05-02T11:34:25.126Z,68.11
2019-05-02T11:36:54.218Z,66.56
2019-05-02T11:39:31.875Z,64.74
2019-05-02T11:41:53.826Z,66.06
2019-05-02T11:44:22.757Z,65.68
2019-05-02T11:46:52.046Z,65.25
2019-05-02T11:49:22.798Z,64.82
2019-05-02T11:51:56.919Z,66.79
2019-05-02T11:54:22.748Z,65.60
2019-05-02T11:56:53.532Z,65.45
2019-05-02T11:59:28.150Z,64.93
2019-05-02T12:02:09.391Z,63.17
2019-05-02T12:04:38.337Z,64.52
2019-05-02T12:07:07.105Z,63.54
2019-05-02T12:09:35.786Z,63.31
2019-05-02T12:12:04.570Z,65.04
2019-05-02T12:14:36.380Z,64.83
2019-05-02T12:17:03.685Z,64.86
2019-05-02T12:19:32.377Z,66.84
2019-05-02T12:22:02.627Z,66.49
2019-05-02T12:24:31.989Z,66.80
2019-05-02T12:27:02.520Z,66.87
2019-05-02T12:29:31.236Z,66.35
2019-05-02T12:31:59.940Z,65.84
2019-05-02T12:34:28.622Z,66.85
2019-05-02T12:36:57.368Z,67.02
2019-05-02T12:39:26.625Z,67.77
2019-05-02T12:41:55.660Z,66.90
2019-05-02T12:44:25.069Z,66.83
2019-05-02T12:46:53.765Z,66.80
2019-05-02T12:49:27.705Z,67.35
2019-05-02T12:51:53.140Z,67.13
2019-05-02T12:54:22.339Z,64.57
2019-05-02T12:56:52.835Z,65.90
2019-05-02T12:59:22.615Z,65.38
2019-05-02T13:01:53.831Z,66.59
2019-05-02T13:04:23.048Z,66.34
2019-05-02T13:06:53.000Z,66.82
2019-05-02T13:09:23.412Z,63.28
2019-05-02T13:11:58.797Z,63.63
2019-05-02T13:14:31.790Z,62.28
2019-05-02T13:17:03.836Z,64.61
2019-05-02T13:19:40.186Z,64.19
2019-05-02T13:22:15.658Z,65.02
2019-05-02T13:24:52.351Z,63.47
2019-05-02T13:27:18.451Z,65.17
2019-05-02T13:29:48.641Z,62.62
2019-05-02T13:32:53.845Z,62.88
2019-05-02T13:35:42.123Z,64.19
2019-05-02T13:38:13.002Z,64.27
2019-05-02T13:40:44.144Z,62.85
2019-05-02T13:43:13.138Z,62.72
2019-05-02T13:46:22.169Z,63.67
2019-05-02T13:48:52.502Z,63.76
2019-05-02T13:51:22.293Z,63.05
2019-05-02T13:54:02.033Z,62.56
2019-05-02T13:56:49.341Z,64.64
2019-05-02T13:59:19.180Z,63.81
2019-05-02T14:01:52.960Z,62.57
2019-05-02T14:04:23.158Z,63.25
2019-05-02T14:06:52.999Z,63.27
2019-05-02T14:09:57.974Z,63.49
2019-05-02T14:12:42.895Z,63.41
2019-05-02T14:15:13.714Z,64.00
2019-05-02T14:17:42.954Z,63.19
2019-05-02T14:20:13.766Z,62.99
2019-05-02T14:22:42.926Z,63.47
2019-05-02T14:25:12.355Z,62.79
2019-05-02T14:27:42.224Z,63.58
2019-05-02T14:30:12.175Z,63.99
2019-05-02T14:32:42.460Z,64.50
2019-05-02T14:35:45.710Z,63.89
2019-05-02T14:38:15.343Z,64.39
2019-05-02T14:41:17.162Z,64.65
2019-05-02T14:44:12.009Z,63.67
2019-05-02T14:46:42.510Z,63.93
2019-05-02T14:49:12.037Z,63.05
2019-05-02T14:51:41.829Z,63.70
2019-05-02T14:54:12.095Z,62.92
2019-05-02T14:56:49.351Z,63.72
2019-05-02T14:59:20.048Z,63.55
2019-05-02T15:01:52.896Z,64.08
2019-05-02T15:04:22.632Z,63.49
2019-05-02T15:06:52.506Z,64.80
2019-05-02T15:09:26.394Z,64.54
2019-05-02T15:12:02.961Z,64.81
2019-05-02T15:14:33.900Z,63.99
2019-05-02T15:17:02.978Z,64.53
2019-05-02T15:19:32.885Z,63.69
2019-05-02T15:22:02.616Z,63.87
2019-05-02T15:24:34.683Z,63.88
2019-05-02T15:27:03.683Z,63.87
2019-05-02T15:29:32.496Z,63.92
2019-05-02T15:32:12.687Z,64.76
2019-05-02T15:34:58.947Z,66.46
2019-05-02T15:37:28.573Z,70.28
2019-05-02T15:42:27.716Z,75.24
2019-05-02T15:44:56.993Z,76.59
2019-05-02T15:47:27.049Z,77.10
2019-05-02T15:49:55.749Z,77.88
2019-05-02T15:52:28.988Z,78.18
2019-05-02T15:55:00.134Z,78.51
2019-05-02T15:57:28.450Z,78.32
2019-05-02T15:59:57.480Z,78.77
2019-05-02T16:02:28.379Z,78.83
2019-05-02T16:05:02.327Z,77.00
2019-05-02T16:07:27.803Z,76.94
2019-05-02T16:10:01.197Z,76.40
2019-05-02T16:12:31.862Z,75.97
2019-05-02T16:14:57.843Z,76.65
2019-05-02T16:17:28.831Z,76.64
2019-05-02T16:20:07.606Z,76.43
2019-05-02T16:22:33.631Z,75.47
2019-05-02T16:25:02.583Z,75.78
2019-05-02T16:27:45.706Z,76.51
2019-05-02T16:30:17.143Z,77.51
2019-05-02T16:32:52.804Z,79.09
2019-05-02T16:35:23.197Z,79.31
2019-05-02T16:37:55.842Z,79.54
2019-05-02T16:40:29.594Z,80.11
2019-05-02T16:42:53.747Z,81.71
2019-05-02T16:45:23.509Z,81.71
2019-05-02T16:47:58.570Z,82.21
2019-05-02T16:50:27.607Z,83.89
2019-05-02T16:52:53.769Z,84.41
2019-05-02T16:55:26.593Z,85.29
2019-05-02T16:57:56.770Z,84.80
2019-05-02T17:00:25.575Z,84.76
2019-05-02T17:02:54.804Z,84.51
2019-05-02T17:05:23.555Z,84.51
2019-05-02T17:08:18.826Z,82.34
2019-05-02T17:10:53.801Z,82.34
2019-05-02T17:13:21.592Z,83.37
2019-05-02T17:15:52.223Z,83.96
2019-05-02T17:18:22.821Z,84.76
2019-05-02T17:20:53.552Z,85.26
2019-05-02T17:23:22.339Z,85.44
2019-05-02T17:25:52.194Z,85.97
2019-05-02T17:28:22.279Z,85.81
2019-05-02T17:30:52.525Z,85.90
2019-05-02T17:33:21.768Z,85.37
2019-05-02T17:35:53.602Z,85.45
2019-05-02T17:38:25.061Z,85.36
2019-05-02T17:40:54.228Z,85.83
2019-05-02T17:43:22.673Z,86.09
2019-05-02T17:45:51.722Z,86.09
2019-05-02T17:48:20.471Z,86.06
2019-05-02T17:51:13.624Z,85.58
2019-05-02T17:53:49.598Z,85.98
2019-05-02T17:56:20.852Z,85.97
2019-05-02T17:58:53.395Z,86.50
2019-05-02T18:01:21.767Z,86.47
2019-05-02T18:03:52.069Z,86.83
2019-05-02T18:06:32.708Z,86.40
2019-05-02T18:08:55.241Z,86.40
2019-05-02T18:11:24.528Z,87.18
2019-05-02T18:13:53.207Z,87.29
2019-05-02T18:16:22.440Z,87.29
2019-05-02T18:18:52.138Z,87.08
2019-05-02T18:21:25.423Z,87.17
2019-05-02T18:23:52.344Z,87.17
2019-05-02T18:26:22.238Z,86.03
2019-05-02T18:28:52.626Z,86.74
2019-05-02T18:31:21.769Z,86.76
2019-05-02T18:33:52.126Z,87.42
2019-05-02T18:36:23.684Z,87.35
2019-05-02T18:38:52.495Z,87.27
2019-05-02T18:41:22.483Z,87.27
2019-05-02T18:43:52.141Z,87.35
2019-05-02T18:46:22.305Z,86.91
2019-05-02T18:48:51.902Z,87.30
2019-05-02T18:51:21.809Z,87.85
2019-05-02T18:53:52.868Z,87.85
2019-05-02T18:56:22.202Z,87.80
2019-05-02T18:58:53.351Z,87.94
2019-05-02T19:01:21.738Z,87.95
2019-05-02T19:03:52.506Z,88.12
2019-05-02T19:06:22.045Z,88.18
2019-05-02T19:08:52.826Z,88.41
2019-05-02T19:11:26.788Z,88.90
2019-05-02T19:13:54.864Z,89.05
2019-05-02T19:16:24.986Z,89.05
2019-05-02T19:18:57.236Z,88.88
2019-05-02T19:21:26.466Z,88.68
2019-05-02T19:23:55.165Z,88.54
2019-05-02T19:26:26.774Z,88.54
2019-05-02T19:29:08.299Z,88.47
2019-05-02T19:31:46.423Z,88.32
2019-05-02T19:34:16.804Z,88.27
2019-05-02T19:36:46.097Z,88.41
2019-05-02T19:39:14.875Z,88.70
2019-05-02T19:41:45.624Z,88.94
2019-05-02T19:44:15.374Z,88.67
2019-05-02T19:46:44.527Z,88.83
2019-05-02T19:49:16.171Z,88.97
2019-05-02T19:51:43.796Z,89.03
2019-05-02T19:54:12.614Z,88.75
2019-05-02T19:56:46.945Z,88.96
2019-05-02T19:59:16.824Z,88.81
2019-05-02T20:01:44.402Z,88.81
2019-05-02T20:04:16.207Z,88.19
2019-05-02T20:06:45.055Z,88.57
2019-05-02T20:09:13.760Z,87.98
2019-05-02T20:11:42.643Z,88.26
2019-05-02T20:14:12.541Z,88.21
2019-05-02T20:16:48.421Z,87.63
2019-05-02T20:19:22.093Z,87.63
2019-05-02T20:22:07.001Z,87.50
2019-05-02T20:24:57.683Z,87.90
2019-05-02T20:27:23.456Z,88.05
2019-05-02T20:29:52.314Z,87.99
2019-05-02T20:32:22.068Z,87.75
2019-05-02T20:34:51.087Z,87.52
2019-05-02T20:37:21.930Z,87.43
2019-05-02T20:39:50.262Z,87.29
2019-05-02T20:42:19.112Z,87.29
2019-05-02T20:44:47.799Z,87.40
2019-05-02T20:47:23.185Z,87.56
2019-05-02T20:49:51.998Z,87.59
2019-05-02T20:52:21.730Z,87.80
2019-05-02T20:54:52.399Z,87.92
2019-05-02T20:57:21.530Z,87.61
2019-05-02T20:59:52.444Z,87.69
2019-05-02T21:02:21.126Z,87.43
2019-05-02T21:04:52.027Z,86.76
2019-05-02T21:07:37.160Z,87.36
2019-05-02T21:10:27.172Z,87.65
2019-05-02T21:12:55.945Z,87.73
2019-05-02T21:15:24.871Z,87.45
2019-05-02T21:17:53.586Z,87.20
2019-05-02T21:20:22.755Z,87.24
2019-05-02T21:22:52.987Z,86.87
2019-05-02T21:25:23.212Z,86.00
2019-05-02T21:27:52.645Z,86.00
2019-05-02T21:30:26.999Z,86.37
2019-05-02T21:32:55.778Z,86.09
2019-05-02T21:35:24.841Z,85.85
2019-05-02T21:37:53.537Z,86.02
2019-05-02T21:40:23.287Z,86.31
2019-05-02T21:42:52.638Z,85.58
2019-05-02T21:45:22.257Z,85.58
2019-05-02T21:47:52.746Z,85.34
2019-05-02T21:50:32.414Z,85.38
2019-05-02T21:53:22.070Z,82.29
2019-05-02T21:56:13.132Z,82.14
2019-05-02T21:59:02.795Z,81.82
2019-05-02T22:01:34.745Z,82.58
2019-05-02T22:04:04.022Z,81.71
2019-05-02T22:06:32.817Z,81.63
2019-05-02T22:09:03.079Z,81.80
2019-05-02T22:11:32.152Z,81.60
2019-05-02T22:14:02.401Z,81.62
2019-05-02T22:16:32.706Z,81.59
2019-05-02T22:19:02.952Z,81.21
2019-05-02T22:21:32.437Z,80.89
2019-05-02T22:24:10.476Z,81.43
2019-05-02T22:26:32.891Z,81.74
2019-05-02T22:29:02.053Z,81.75
2019-05-02T22:31:32.385Z,81.68
2019-05-02T22:34:02.195Z,81.73
2019-05-02T22:36:32.741Z,82.25
2019-05-02T22:39:34.233Z,82.13
2019-05-02T22:42:04.705Z,82.27
2019-05-02T22:44:33.508Z,82.03
2019-05-02T22:47:02.191Z,81.29
2019-05-02T22:49:31.846Z,81.20
2019-05-02T22:52:00.800Z,80.58
2019-05-02T22:54:31.543Z,80.51
2019-05-02T22:56:59.954Z,80.82
2019-05-02T22:59:31.563Z,79.08
2019-05-02T23:02:01.975Z,79.38
2019-05-02T23:04:32.323Z,78.73
2019-05-02T23:07:03.319Z,78.42
2019-05-02T23:09:32.132Z,78.98
2019-05-02T23:12:02.825Z,79.60
2019-05-02T23:14:32.475Z,79.84
2019-05-02T23:17:02.274Z,79.39
2019-05-02T23:19:31.718Z,79.31
2019-05-02T23:22:02.114Z,79.77
2019-05-02T23:24:46.469Z,79.33
2019-05-02T23:27:37.424Z,79.64
2019-05-02T23:30:08.849Z,79.64
2019-05-02T23:32:38.027Z,78.73
2019-05-02T23:35:07.582Z,79.09
2019-05-02T23:37:36.477Z,78.85
2019-05-02T23:40:05.858Z,78.68
2019-05-02T23:42:34.522Z,78.84
2019-05-02T23:45:03.705Z,78.67
2019-05-02T23:47:33.011Z,78.59
2019-05-02T23:50:02.848Z,78.11
2019-05-02T23:52:31.693Z,78.16
2019-05-02T23:55:00.362Z,79.13
2019-05-02T23:57:29.032Z,79.08
2019-05-02T23:59:57.748Z,79.40
